Time;durP1;ratioP1;P1;durP2;ratioP2;P2;SDS_P1;SDS_P2;PMS_P1;PMS_P2;Temp;Humidity;BMP_temperature;BMP_pressure;BME280_temperature;BME280_humidity;BME280_pressure;Samples;Min_cycle;Max_cycle;Signal;HPM_P1;HPM_P2
2021/10/14 00:01:09;;;;;;;9.27;5.87;;;5.20;99.90;;;;;;5070303;28;20450;-56
2021/10/14 00:03:36;;;;;;;6.10;5.50;;;5.30;99.90;;;;;;5070008;28;20542;-55
2021/10/14 00:06:03;;;;;;;10.53;6.40;;;5.30;99.90;;;;;;5070610;28;20455;-56
2021/10/14 00:08:30;;;;;;;8.33;5.53;;;5.30;99.90;;;;;;5070641;28;20868;-54
2021/10/14 00:10:57;;;;;;;13.77;6.63;;;5.10;99.90;;;;;;5070619;28;20442;-55
2021/10/14 00:13:25;;;;;;;12.07;6.50;;;5.00;99.90;;;;;;5071987;28;20495;-56
2021/10/14 00:15:52;;;;;;;7.93;6.23;;;5.00;99.90;;;;;;5066572;28;20516;-55
2021/10/14 00:18:19;;;;;;;10.63;6.63;;;5.00;99.90;;;;;;5073858;28;20448;-56
2021/10/14 00:20:46;;;;;;;11.33;7.40;;;4.80;99.90;;;;;;5074169;28;20447;-55
2021/10/14 00:23:13;;;;;;;11.90;6.87;;;4.70;99.90;;;;;;5073628;28;20459;-57
2021/10/14 00:25:40;;;;;;;10.90;7.60;;;4.70;99.90;;;;;;5073874;28;20446;-55
2021/10/14 00:28:07;;;;;;;8.50;6.80;;;4.80;99.90;;;;;;5073927;28;20523;-54
2021/10/14 00:30:38;;;;;;;11.03;6.80;;;4.90;99.90;;;;;;5073731;28;20454;-55
2021/10/14 00:33:05;;;;;;;9.77;6.97;;;5.00;99.90;;;;;;5073739;28;20945;-55
2021/10/14 00:35:32;;;;;;;10.43;6.97;;;5.00;99.90;;;;;;5073048;28;20463;-55
2021/10/14 00:37:59;;;;;;;9.63;7.07;;;4.90;99.90;;;;;;5073815;28;20446;-56
2021/10/14 00:40:26;;;;;;;9.17;6.23;;;4.90;99.90;;;;;;5073188;28;20456;-56
2021/10/14 00:42:53;;;;;;;10.07;6.23;;;4.90;99.90;;;;;;5073732;28;20455;-56
2021/10/14 00:45:21;;;;;;;12.17;7.27;;;4.90;99.90;;;;;;5111125;22;20912;-58
2021/10/14 00:47:49;;;;;;;7.67;6.10;;;4.80;99.90;;;;;;5093984;28;20446;-58
2021/10/14 00:50:16;;;;;;;7.40;5.37;;;4.80;99.90;;;;;;5082201;28;20446;-60
2021/10/14 00:52:43;;;;;;;5.67;4.50;;;4.80;99.90;;;;;;5094079;28;20445;-59
2021/10/14 00:55:12;;;;;;;9.50;5.40;;;4.70;99.90;;;;;;5095091;28;20473;-59
2021/10/14 00:57:40;;;;;;;7.23;4.87;;;4.70;99.90;;;;;;5092729;28;20450;-60
2021/10/14 01:00:08;;;;;;;6.90;4.87;;;4.60;99.90;;;;;;5093726;28;20492;-59
2021/10/14 01:02:35;;;;;;;6.40;4.80;;;4.70;99.90;;;;;;5093555;28;20439;-59
2021/10/14 01:05:05;;;;;;;5.70;4.60;;;4.70;99.90;;;;;;5086365;28;20489;-61
2021/10/14 01:07:32;;;;;;;6.70;4.57;;;4.60;99.90;;;;;;5093578;28;20443;-59
2021/10/14 01:09:59;;;;;;;5.73;4.40;;;4.60;99.90;;;;;;5095960;28;20443;-59
2021/10/14 01:12:27;;;;;;;5.43;4.80;;;4.70;99.90;;;;;;5113768;28;20954;-60
2021/10/14 01:14:54;;;;;;;6.90;5.20;;;4.80;99.90;;;;;;5104868;28;20466;-60
2021/10/14 01:17:21;;;;;;;7.90;5.13;;;4.70;99.90;;;;;;5096929;28;20499;-60
2021/10/14 01:19:49;;;;;;;6.70;5.03;;;4.70;99.90;;;;;;5073337;28;20447;-59
2021/10/14 01:22:16;;;;;;;7.80;5.00;;;4.70;99.90;;;;;;5099312;28;20449;-59
2021/10/14 01:24:46;;;;;;;9.20;5.30;;;4.60;99.90;;;;;;5108339;28;20558;-60
2021/10/14 01:27:13;;;;;;;5.97;4.60;;;4.60;99.90;;;;;;5113114;28;20492;-61
2021/10/14 01:29:40;;;;;;;6.57;5.03;;;4.60;99.90;;;;;;5113579;28;20444;-60
2021/10/14 01:32:07;;;;;;;6.40;4.97;;;4.60;99.90;;;;;;5101390;28;20495;-59
2021/10/14 01:34:34;;;;;;;7.20;5.27;;;4.60;99.90;;;;;;5087888;28;20845;-60
2021/10/14 01:37:03;;;;;;;6.60;5.17;;;4.60;99.90;;;;;;5100219;28;20449;-60
2021/10/14 01:39:30;;;;;;;8.60;4.93;;;4.50;99.90;;;;;;5113300;28;20510;-59
2021/10/14 01:41:57;;;;;;;8.60;4.90;;;4.60;99.90;;;;;;5099621;28;20451;-59
2021/10/14 01:44:24;;;;;;;7.03;5.00;;;4.40;99.90;;;;;;5075493;28;20537;-59
2021/10/14 01:46:51;;;;;;;7.17;5.27;;;4.40;99.90;;;;;;5092203;28;20461;-60
2021/10/14 01:49:18;;;;;;;6.53;4.97;;;4.40;99.90;;;;;;5093065;28;20453;-59
2021/10/14 01:51:45;;;;;;;8.03;5.10;;;4.30;99.90;;;;;;5092840;28;20442;-60
2021/10/14 01:54:14;;;;;;;8.13;5.10;;;4.20;99.90;;;;;;5095040;28;20978;-59
2021/10/14 01:56:41;;;;;;;8.53;5.47;;;4.20;99.90;;;;;;5093546;28;20894;-59
2021/10/14 01:59:08;;;;;;;7.37;5.00;;;4.20;99.90;;;;;;5077142;28;20895;-60
2021/10/14 02:01:35;;;;;;;7.43;5.27;;;4.20;99.90;;;;;;5092935;28;20798;-59
2021/10/14 02:04:03;;;;;;;5.77;4.63;;;4.10;99.90;;;;;;5092495;28;20618;-59
2021/10/14 02:06:30;;;;;;;6.40;5.10;;;4.20;99.90;;;;;;5092786;28;20450;-59
2021/10/14 02:08:57;;;;;;;5.63;4.47;;;4.20;99.90;;;;;;5096759;28;20445;-59
2021/10/14 02:11:25;;;;;;;10.23;5.27;;;4.10;99.90;;;;;;5113007;28;20440;-60
2021/10/14 02:13:52;;;;;;;7.03;4.70;;;4.20;99.90;;;;;;5113032;28;20517;-59
2021/10/14 02:16:19;;;;;;;12.37;4.63;;;4.10;99.90;;;;;;5086195;28;20449;-59
2021/10/14 02:18:46;;;;;;;6.93;4.87;;;4.10;99.90;;;;;;5112905;28;20502;-59
2021/10/14 02:21:15;;;;;;;5.50;4.30;;;4.00;99.90;;;;;;5112689;28;20449;-59
2021/10/14 02:23:42;;;;;;;9.07;5.87;;;3.90;99.90;;;;;;5112467;28;20950;-59
2021/10/14 02:26:09;;;;;;;9.00;5.80;;;3.80;99.90;;;;;;5096018;28;20445;-59
2021/10/14 02:28:37;;;;;;;8.40;5.47;;;3.60;99.90;;;;;;5108808;28;20445;-59
2021/10/14 02:31:04;;;;;;;7.07;5.23;;;3.40;99.90;;;;;;5084398;28;20454;-60
2021/10/14 02:33:32;;;;;;;7.23;5.50;;;3.50;99.90;;;;;;5087368;28;20473;-59
2021/10/14 02:35:59;;;;;;;7.43;5.10;;;3.60;99.90;;;;;;5108591;28;20438;-59
2021/10/14 02:38:26;;;;;;;7.27;5.50;;;3.60;99.90;;;;;;5120475;28;20942;-58
2021/10/14 02:40:52;;;;;;;8.47;5.77;;;3.60;99.90;;;;;;5112566;28;20498;-59
2021/10/14 02:43:19;;;;;;;7.40;5.87;;;3.50;99.90;;;;;;5104650;28;20475;-58
2021/10/14 02:45:48;;;;;;;7.73;5.57;;;3.60;99.90;;;;;;5097666;28;20986;-59
2021/10/14 02:48:15;;;;;;;7.00;5.33;;;3.60;99.90;;;;;;5112404;28;20493;-59
2021/10/14 02:50:44;;;;;;;7.50;5.80;;;3.70;99.90;;;;;;5112133;28;20505;-59
2021/10/14 02:53:11;;;;;;;7.93;4.97;;;3.70;99.90;;;;;;5110828;28;20509;-59
2021/10/14 02:55:38;;;;;;;8.10;5.70;;;3.70;99.90;;;;;;5112153;28;20465;-59
2021/10/14 02:58:05;;;;;;;9.43;5.30;;;3.70;99.90;;;;;;5092832;28;20494;-59
2021/10/14 03:00:32;;;;;;;7.77;5.27;;;3.70;99.90;;;;;;5111942;28;20449;-59
2021/10/14 03:03:00;;;;;;;9.30;5.30;;;3.70;99.90;;;;;;5108868;28;20503;-59
2021/10/14 03:05:27;;;;;;;9.10;5.60;;;3.70;99.90;;;;;;5103140;28;20896;-59
2021/10/14 03:07:54;;;;;;;6.63;5.23;;;3.70;99.90;;;;;;5098398;28;20945;-59
2021/10/14 03:10:21;;;;;;;9.27;5.50;;;3.70;99.90;;;;;;5111857;28;20441;-59
2021/10/14 03:12:48;;;;;;;12.40;6.00;;;3.60;99.90;;;;;;5111109;28;20506;-59
2021/10/14 03:15:15;;;;;;;9.47;6.40;;;3.70;99.90;;;;;;5110780;28;20461;-59
2021/10/14 03:17:42;;;;;;;9.03;6.57;;;3.70;99.90;;;;;;5111710;28;20938;-59
2021/10/14 03:20:11;;;;;;;11.67;6.83;;;3.80;99.90;;;;;;5111884;28;20444;-59
2021/10/14 03:22:38;;;;;;;12.60;6.90;;;3.70;99.90;;;;;;5112194;28;20449;-59
2021/10/14 03:25:07;;;;;;;10.97;7.00;;;3.70;99.90;;;;;;5091928;28;21144;-59
2021/10/14 03:27:34;;;;;;;12.60;7.20;;;3.60;99.90;;;;;;5091672;28;20478;-59
2021/10/14 03:30:01;;;;;;;11.83;7.77;;;3.60;99.90;;;;;;5091541;28;21025;-59
2021/10/14 03:32:28;;;;;;;13.13;8.13;;;3.60;99.90;;;;;;5091255;28;20853;-59
2021/10/14 03:34:55;;;;;;;10.73;7.37;;;3.60;99.90;;;;;;5105558;28;20463;-59
2021/10/14 03:37:23;;;;;;;11.93;7.53;;;3.70;99.90;;;;;;5111838;28;20501;-59
2021/10/14 03:39:50;;;;;;;13.00;7.83;;;3.60;99.90;;;;;;5111616;28;20895;-59
2021/10/14 03:42:18;;;;;;;11.57;7.50;;;3.60;99.90;;;;;;5111599;28;20938;-59
2021/10/14 03:44:45;;;;;;;13.13;8.60;;;3.50;99.90;;;;;;5094735;28;20941;-59
2021/10/14 03:47:12;;;;;;;13.77;8.00;;;3.50;99.90;;;;;;5091353;28;20453;-59
2021/10/14 03:49:39;;;;;;;12.57;8.47;;;3.50;99.90;;;;;;5109188;28;20501;-59
2021/10/14 03:52:07;;;;;;;11.40;7.70;;;3.30;99.90;;;;;;5111201;28;20487;-59
2021/10/14 03:54:35;;;;;;;13.17;8.20;;;3.30;99.90;;;;;;5103907;28;20872;-59
2021/10/14 03:57:02;;;;;;;13.60;8.40;;;3.20;99.90;;;;;;5112397;28;20446;-59
2021/10/14 03:59:29;;;;;;;14.17;8.00;;;3.10;99.90;;;;;;5091500;28;21000;-59
2021/10/14 04:01:56;;;;;;;12.33;7.80;;;3.00;99.90;;;;;;5095071;28;20444;-59
2021/10/14 04:04:23;;;;;;;8.07;6.33;;;3.10;99.90;;;;;;5108557;28;20521;-59
2021/10/14 04:06:50;;;;;;;11.13;7.33;;;3.10;99.90;;;;;;5115418;28;20526;-59
2021/10/14 04:09:17;;;;;;;15.00;7.07;;;3.10;99.90;;;;;;5115468;28;20504;-59
2021/10/14 04:11:46;;;;;;;13.07;7.13;;;3.10;99.90;;;;;;5115155;28;20445;-59
2021/10/14 04:14:13;;;;;;;14.83;7.40;;;3.10;99.90;;;;;;5100690;28;20479;-60
2021/10/14 04:16:40;;;;;;;9.37;7.00;;;3.00;99.90;;;;;;5115436;28;20448;-59
2021/10/14 04:19:07;;;;;;;14.80;7.13;;;3.00;99.90;;;;;;5115219;28;20450;-59
2021/10/14 04:21:36;;;;;;;12.43;7.27;;;3.00;99.90;;;;;;5114989;28;20523;-59
2021/10/14 04:24:03;;;;;;;8.77;6.47;;;3.00;99.90;;;;;;5111276;28;20476;-59
2021/10/14 04:26:30;;;;;;;9.53;6.60;;;2.90;99.90;;;;;;5114879;28;20480;-59
2021/10/14 04:28:59;;;;;;;10.50;6.37;;;3.00;99.90;;;;;;5115032;28;20441;-59
2021/10/14 04:31:27;;;;;;;9.30;6.30;;;2.90;99.90;;;;;;5114932;28;20444;-59
2021/10/14 04:33:54;;;;;;;11.70;6.93;;;3.00;99.90;;;;;;5113460;28;20901;-59
2021/10/14 04:36:21;;;;;;;11.20;6.03;;;3.10;99.90;;;;;;5114778;28;20882;-59
2021/10/14 04:38:48;;;;;;;10.90;6.37;;;3.20;99.90;;;;;;5114824;28;20508;-59
2021/10/14 04:41:15;;;;;;;8.63;6.23;;;3.30;99.90;;;;;;5114440;28;20445;-59
2021/10/14 04:43:42;;;;;;;10.37;6.40;;;3.10;99.90;;;;;;5101375;28;20499;-59
2021/10/14 04:46:10;;;;;;;8.03;5.43;;;3.20;99.90;;;;;;5104660;28;20477;-59
2021/10/14 04:48:37;;;;;;;9.80;6.30;;;3.30;99.90;;;;;;5114726;28;20860;-59
2021/10/14 04:51:05;;;;;;;9.80;6.10;;;3.30;99.90;;;;;;5114307;28;20983;-59
2021/10/14 04:53:31;;;;;;;10.90;6.80;;;3.40;99.90;;;;;;5106361;28;20511;-59
2021/10/14 04:55:58;;;;;;;9.77;6.00;;;3.40;99.90;;;;;;5114570;28;20441;-59
2021/10/14 04:58:25;;;;;;;11.73;6.60;;;3.40;99.90;;;;;;5114426;28;20449;-59
2021/10/14 05:00:52;;;;;;;8.77;5.83;;;3.40;99.90;;;;;;5103635;28;21034;-59
2021/10/14 05:03:21;;;;;;;16.17;7.60;;;3.20;99.90;;;;;;5104556;28;20500;-59
2021/10/14 05:05:48;;;;;;;10.83;6.67;;;3.20;99.90;;;;;;5108489;28;20480;-59
2021/10/14 05:08:18;;;;;;;11.23;6.80;;;3.10;99.90;;;;;;5095310;28;21184;-58
2021/10/14 05:10:45;;;;;;;11.97;7.60;;;3.10;99.90;;;;;;5093706;28;20496;-59
2021/10/14 05:13:12;;;;;;;14.10;8.10;;;3.20;99.90;;;;;;5093370;28;20450;-59
2021/10/14 05:15:40;;;;;;;14.93;9.10;;;3.30;99.90;;;;;;5093440;28;20461;-59
2021/10/14 05:18:08;;;;;;;13.80;8.17;;;3.30;99.90;;;;;;5093757;28;20450;-59
2021/10/14 05:20:36;;;;;;;13.87;8.53;;;3.30;99.90;;;;;;5093359;28;20449;-59
2021/10/14 05:23:03;;;;;;;18.50;8.37;;;3.40;99.90;;;;;;5093255;28;20450;-59
2021/10/14 05:25:30;;;;;;;23.60;9.50;;;3.50;99.90;;;;;;5093557;28;20489;-59
2021/10/14 05:27:58;;;;;;;18.00;10.00;;;3.40;99.90;;;;;;5092346;28;20461;-59
2021/10/14 05:30:25;;;;;;;16.03;8.80;;;3.40;99.90;;;;;;5091276;28;20450;-59
2021/10/14 05:32:52;;;;;;;17.37;8.50;;;3.40;99.90;;;;;;5092237;28;20950;-59
2021/10/14 05:35:19;;;;;;;11.10;6.77;;;3.40;99.90;;;;;;5098841;28;20489;-59
2021/10/14 05:37:48;;;;;;;10.37;6.47;;;3.40;99.90;;;;;;5091986;28;20864;-59
2021/10/14 05:40:15;;;;;;;9.20;5.90;;;3.30;99.90;;;;;;5092899;28;20454;-59
2021/10/14 05:42:42;;;;;;;7.40;5.10;;;3.30;99.90;;;;;;5090437;28;20488;-59
2021/10/14 05:45:10;;;;;;;9.83;6.97;;;3.20;99.90;;;;;;5072329;28;21000;-59
2021/10/14 05:47:37;;;;;;;11.37;6.70;;;3.20;99.90;;;;;;5072674;28;20873;-59
2021/10/14 05:50:05;;;;;;;10.97;6.97;;;3.20;99.90;;;;;;5072515;28;20451;-59
2021/10/14 05:52:32;;;;;;;9.80;5.90;;;3.20;99.90;;;;;;5085206;28;20495;-59
2021/10/14 05:55:00;;;;;;;11.63;6.70;;;3.00;99.90;;;;;;5083645;28;20470;-59
2021/10/14 05:57:27;;;;;;;9.33;6.03;;;3.10;99.90;;;;;;5092227;28;20500;-59
2021/10/14 05:59:55;;;;;;;10.60;6.40;;;3.00;99.90;;;;;;5093701;28;20450;-58
2021/10/14 06:02:22;;;;;;;8.80;5.90;;;3.00;99.90;;;;;;5092901;28;20958;-59
2021/10/14 06:04:50;;;;;;;11.53;6.60;;;3.00;99.90;;;;;;5089288;28;21058;-59
2021/10/14 06:07:17;;;;;;;9.70;6.07;;;3.00;99.90;;;;;;5103771;28;20455;-59
2021/10/14 06:09:45;;;;;;;7.87;5.33;;;3.00;99.90;;;;;;5111428;28;20441;-59
2021/10/14 06:12:13;;;;;;;14.17;6.83;;;3.10;99.90;;;;;;5101527;28;20443;-59
2021/10/14 06:14:41;;;;;;;10.73;5.97;;;3.10;99.90;;;;;;5092284;28;20474;-59
2021/10/14 06:17:08;;;;;;;10.03;6.67;;;3.30;99.90;;;;;;5107247;28;20449;-59
2021/10/14 06:19:35;;;;;;;13.57;6.10;;;3.30;99.90;;;;;;5090920;28;20449;-59
2021/10/14 06:22:02;;;;;;;12.00;5.70;;;3.40;99.90;;;;;;5105234;28;20444;-59
2021/10/14 06:24:29;;;;;;;10.63;6.40;;;3.30;99.90;;;;;;5091189;28;20473;-59
2021/10/14 06:26:56;;;;;;;9.33;5.60;;;3.30;99.90;;;;;;5072182;28;20485;-59
2021/10/14 06:29:25;;;;;;;8.40;6.10;;;3.40;99.90;;;;;;5073053;28;20454;-59
2021/10/14 06:31:55;;;;;;;10.80;6.20;;;3.40;99.90;;;;;;5091020;28;20950;-59
2021/10/14 06:34:22;;;;;;;9.40;6.10;;;3.60;99.90;;;;;;5091268;28;20497;-59
2021/10/14 06:36:48;;;;;;;18.43;7.50;;;3.70;99.90;;;;;;5091991;28;20445;-59
2021/10/14 06:39:15;;;;;;;14.30;7.37;;;4.00;99.90;;;;;;5092293;28;20450;-59
2021/10/14 06:41:43;;;;;;;12.43;6.10;;;4.20;99.90;;;;;;5087005;28;20454;-59
2021/10/14 06:44:10;;;;;;;12.23;5.80;;;4.40;99.90;;;;;;5113333;22;21013;-52
2021/10/14 06:46:39;;;;;;;11.90;5.93;;;4.50;99.90;;;;;;5071143;28;21052;-53
2021/10/14 06:49:07;;;;;;;8.57;5.93;;;4.60;99.90;;;;;;5069355;28;20458;-52
2021/10/14 06:51:34;;;;;;;8.70;5.70;;;4.60;99.90;;;;;;5071656;28;20509;-52
2021/10/14 06:54:01;;;;;;;13.37;6.50;;;4.70;99.90;;;;;;5071698;28;20453;-52
2021/10/14 06:56:28;;;;;;;10.47;6.00;;;4.70;99.90;;;;;;5073537;28;20443;-52
2021/10/14 06:58:55;;;;;;;6.93;4.70;;;4.90;99.90;;;;;;5071175;28;20450;-52
2021/10/14 07:01:22;;;;;;;10.97;5.90;;;5.00;99.90;;;;;;5071572;28;20879;-52
2021/10/14 07:03:50;;;;;;;7.17;5.00;;;5.10;99.90;;;;;;5071675;28;20451;-52
2021/10/14 07:06:17;;;;;;;9.30;5.77;;;5.20;99.90;;;;;;5071043;28;20504;-53
2021/10/14 07:08:44;;;;;;;9.13;6.53;;;5.20;99.90;;;;;;5071746;28;20443;-52
2021/10/14 07:11:11;;;;;;;8.10;5.30;;;5.20;99.90;;;;;;5071492;28;20497;-52
2021/10/14 07:13:39;;;;;;;7.77;5.10;;;5.30;99.90;;;;;;5071537;28;20990;-53
2021/10/14 07:16:06;;;;;;;8.57;5.77;;;5.30;99.90;;;;;;5071315;28;20473;-51
2021/10/14 07:18:33;;;;;;;8.10;4.97;;;5.40;99.90;;;;;;5071447;28;20443;-52
2021/10/14 07:21:02;;;;;;;6.80;5.07;;;5.50;99.90;;;;;;5071319;28;20446;-52
2021/10/14 07:23:29;;;;;;;10.00;5.13;;;5.60;99.90;;;;;;5073337;28;20469;-52
2021/10/14 07:25:56;;;;;;;9.67;5.30;;;5.90;99.90;;;;;;5075033;28;20505;-51
2021/10/14 07:28:23;;;;;;;7.83;4.70;;;5.90;99.90;;;;;;5075404;28;20930;-52
2021/10/14 07:30:53;;;;;;;7.73;5.00;;;5.90;99.90;;;;;;5075089;28;20451;-52
2021/10/14 07:33:21;;;;;;;6.30;4.73;;;6.10;99.90;;;;;;5075313;28;20546;-53
2021/10/14 07:35:48;;;;;;;5.13;3.83;;;6.20;99.90;;;;;;5074955;28;21001;-52
2021/10/14 07:38:16;;;;;;;6.73;4.30;;;6.30;99.90;;;;;;5075278;28;20443;-52
2021/10/14 07:40:44;;;;;;;4.63;3.53;;;6.30;99.90;;;;;;5074907;28;20450;-53
2021/10/14 07:43:13;;;;;;;4.30;3.87;;;6.40;99.90;;;;;;5075206;28;20454;-53
2021/10/14 07:45:41;;;;;;;7.67;4.10;;;6.50;99.90;;;;;;5073752;28;20479;-53
2021/10/14 07:48:08;;;;;;;4.60;3.40;;;6.50;99.90;;;;;;5063117;28;20463;-53
2021/10/14 07:50:36;;;;;;;6.10;4.30;;;6.50;99.90;;;;;;5054931;28;20447;-53
2021/10/14 07:53:09;;;;;;;5.40;3.77;;;6.60;99.90;;;;;;5054967;28;20448;-53
2021/10/14 07:55:37;;;;;;;4.50;3.40;;;6.60;99.90;;;;;;5062344;28;20524;-53
2021/10/14 07:58:04;;;;;;;8.20;3.63;;;6.80;99.90;;;;;;5078369;28;20446;-54
2021/10/14 08:00:31;;;;;;;3.90;3.30;;;6.90;99.90;;;;;;5074895;28;20862;-53
2021/10/14 08:02:58;;;;;;;3.67;2.73;;;7.00;99.90;;;;;;5074821;28;20449;-55
2021/10/14 08:05:25;;;;;;;3.70;2.80;;;7.10;99.90;;;;;;5074362;28;20976;-54
2021/10/14 08:07:52;;;;;;;3.60;3.03;;;7.20;99.90;;;;;;5074772;28;20443;-55
2021/10/14 08:10:19;;;;;;;3.93;3.13;;;7.30;99.90;;;;;;5064923;28;20448;-53
2021/10/14 08:12:48;;;;;;;5.00;2.83;;;7.50;99.90;;;;;;5084946;28;20434;-53
2021/10/14 08:15:15;;;;;;;3.80;3.30;;;7.60;99.90;;;;;;5089883;28;20458;-54
2021/10/14 08:17:42;;;;;;;3.90;3.17;;;7.70;99.90;;;;;;5074326;28;20544;-54
2021/10/14 08:20:10;;;;;;;5.00;2.97;;;7.70;99.90;;;;;;5073302;28;20486;-55
2021/10/14 08:22:37;;;;;;;5.57;3.40;;;7.80;99.90;;;;;;5065305;28;20439;-55
2021/10/14 08:25:04;;;;;;;4.70;3.43;;;7.90;99.90;;;;;;5056533;28;20526;-55
2021/10/14 08:27:31;;;;;;;5.20;3.17;;;8.00;99.90;;;;;;5073921;28;20909;-55
2021/10/14 08:30:00;;;;;;;3.67;3.23;;;8.00;99.90;;;;;;5074245;28;20502;-55
2021/10/14 08:32:27;;;;;;;4.50;3.80;;;7.80;99.90;;;;;;5069943;28;20468;-54
2021/10/14 08:34:55;;;;;;;5.85;3.70;;;7.90;99.90;;;;;;5072334;28;20493;-53
2021/10/14 08:37:22;;;;;;;4.07;3.17;;;8.20;99.90;;;;;;5063273;28;20670;-53
2021/10/14 08:39:49;;;;;;;7.50;3.30;;;8.80;99.90;;;;;;5072404;28;20965;-54
2021/10/14 08:42:16;;;;;;;4.97;3.60;;;9.50;99.90;;;;;;5073676;28;20450;-55
2021/10/14 08:44:44;;;;;;;4.10;3.67;;;10.10;99.90;;;;;;5073514;28;20536;-55
2021/10/14 08:47:13;;;;;;;4.13;3.50;;;10.60;99.90;;;;;;5069998;28;20487;-54
2021/10/14 08:49:45;;;;;;;4.63;3.30;;;11.10;99.90;;;;;;5073730;28;20446;-55
2021/10/14 08:52:13;;;;;;;3.53;3.20;;;11.60;99.90;;;;;;5070011;28;20530;-54
2021/10/14 08:54:40;;;;;;;5.40;4.90;;;11.70;99.90;;;;;;5072787;28;20480;-54
2021/10/14 08:57:08;;;;;;;3.40;3.10;;;12.20;99.90;;;;;;5073043;28;21047;-55
2021/10/14 08:59:36;;;;;;;4.23;2.93;;;12.70;99.90;;;;;;5072883;28;20451;-54
2021/10/14 09:02:16;;;;;;;3.70;3.10;;;12.90;99.90;;;;;;5067883;28;21008;-54
2021/10/14 09:04:44;;;;;;;3.27;3.00;;;12.90;99.90;;;;;;5059645;28;20463;-55
2021/10/14 09:07:13;;;;;;;3.90;3.50;;;13.30;99.90;;;;;;5069935;28;20540;-53
2021/10/14 09:09:41;;;;;;;4.60;3.57;;;13.50;99.90;;;;;;5073291;28;20450;-55
2021/10/14 09:12:10;;;;;;;3.47;3.17;;;13.60;99.90;;;;;;5072823;28;20447;-54
2021/10/14 09:14:53;;;;;;;4.33;3.10;;;13.10;99.90;;;;;;5073326;28;20467;-53
2021/10/14 09:17:42;;;;;;;5.40;3.20;;;12.60;99.90;;;;;;5072947;28;20439;-54
2021/10/14 09:20:27;;;;;;;4.97;3.20;;;12.80;99.90;;;;;;5053247;28;20506;-54
2021/10/14 09:22:54;;;;;;;5.13;3.40;;;12.90;99.90;;;;;;5070839;28;20508;-55
2021/10/14 09:25:29;;;;;;;3.80;3.33;;;13.20;99.90;;;;;;5073098;28;20516;-55
2021/10/14 09:28:15;;;;;;;4.10;3.70;;;13.60;99.90;;;;;;5072787;28;20481;-55
2021/10/14 09:30:54;;;;;;;7.37;3.23;;;14.00;99.90;;;;;;5066907;28;20464;-55
2021/10/14 09:33:31;;;;;;;4.03;3.20;;;13.80;99.90;;;;;;5072260;28;20454;-55
2021/10/14 09:36:14;;;;;;;3.80;3.30;;;14.50;99.90;;;;;;5065182;28;20524;-54
2021/10/14 09:38:43;;;;;;;9.10;3.60;;;14.80;99.90;;;;;;5071038;28;20455;-54
2021/10/14 09:41:12;;;;;;;3.73;3.33;;;14.60;99.90;;;;;;5075330;28;20515;-54
2021/10/14 09:43:40;;;;;;;6.37;3.67;;;13.60;99.90;;;;;;5066781;28;20443;-55
2021/10/14 09:46:08;;;;;;;7.33;3.47;;;13.10;99.90;;;;;;5054924;28;20900;-55
2021/10/14 09:48:40;;;;;;;4.33;3.30;;;12.80;99.90;;;;;;5053541;28;20452;-55
2021/10/14 09:51:08;;;;;;;4.17;3.43;;;12.20;99.90;;;;;;5055161;28;20459;-55
2021/10/14 09:53:35;;;;;;;4.13;3.40;;;12.60;99.90;;;;;;5071758;28;20455;-56
2021/10/14 09:56:02;;;;;;;4.60;3.70;;;13.00;99.90;;;;;;5063783;28;21042;-56
2021/10/14 09:58:29;;;;;;;7.20;3.20;;;13.60;99.90;;;;;;5072467;28;20508;-56
2021/10/14 10:00:57;;;;;;;9.00;3.50;;;14.40;99.90;;;;;;5071519;28;20463;-53
2021/10/14 10:03:25;;;;;;;3.53;3.23;;;14.50;99.90;;;;;;5067384;28;20532;-54
2021/10/14 10:05:55;;;;;;;5.50;3.70;;;14.30;99.90;;;;;;5067705;28;20471;-54
2021/10/14 10:08:29;;;;;;;4.27;3.43;;;14.80;99.90;;;;;;5059137;28;20484;-53
2021/10/14 10:10:58;;;;;;;6.30;3.30;;;14.60;99.90;;;;;;5052242;28;20440;-54
2021/10/14 10:13:27;;;;;;;4.10;2.87;;;14.90;99.90;;;;;;5066347;28;20462;-54
2021/10/14 10:15:54;;;;;;;3.50;3.20;;;14.80;99.90;;;;;;5067758;28;20492;-53
2021/10/14 10:18:43;;;;;;;4.43;3.43;;;14.60;99.90;;;;;;5060731;28;20500;-55
2021/10/14 10:21:39;;;;;;;4.00;3.50;;;14.20;99.90;;;;;;5052037;28;20452;-53
2021/10/14 10:24:06;;;;;;;7.47;5.10;;;14.10;99.90;;;;;;5052557;28;20957;-54
2021/10/14 10:26:50;;;;;;;5.60;3.27;;;14.10;99.90;;;;;;5054638;28;20989;-55
2021/10/14 10:29:50;;;;;;;5.70;3.43;;;13.90;99.90;;;;;;5052344;28;20462;-54
2021/10/14 10:32:22;;;;;;;4.10;3.70;;;14.00;99.90;;;;;;5028096;28;20966;-54
2021/10/14 10:35:00;;;;;;;3.57;3.23;;;14.00;99.90;;;;;;5024805;28;21015;-53
2021/10/14 10:37:43;;;;;;;4.80;3.30;;;14.30;99.90;;;;;;5032859;28;20451;-54
2021/10/14 10:40:21;;;;;;;3.00;2.70;;;14.60;99.90;;;;;;5058237;28;20478;-55
2021/10/14 10:42:53;;;;;;;3.37;2.80;;;14.80;99.90;;;;;;5075746;28;20469;-55
2021/10/14 10:45:23;;;;;;;3.20;2.93;;;14.90;99.90;;;;;;5074926;28;20470;-54
2021/10/14 10:48:01;;;;;;;3.07;2.77;;;14.80;99.90;;;;;;5061389;28;20478;-55
2021/10/14 10:50:44;;;;;;;4.40;2.90;;;14.50;99.90;;;;;;5071405;28;20447;-56
2021/10/14 10:53:14;;;;;;;3.30;2.90;;;14.60;99.90;;;;;;5071628;28;20446;-56
2021/10/14 10:55:46;;;;;;;3.90;3.23;;;14.60;99.90;;;;;;5071772;28;20922;-55
2021/10/14 10:58:14;;;;;;;3.50;3.00;;;14.50;99.90;;;;;;5068049;28;20439;-55
2021/10/14 11:00:43;;;;;;;4.40;2.77;;;14.40;99.90;;;;;;5067644;28;20461;-55
2021/10/14 11:03:13;;;;;;;4.00;3.17;;;14.30;99.90;;;;;;5062663;28;20516;-55
2021/10/14 11:05:42;;;;;;;3.27;2.70;;;13.90;99.90;;;;;;5071356;28;20462;-55
2021/10/14 11:08:09;;;;;;;3.13;2.73;;;13.90;99.90;;;;;;5066136;28;20479;-54
2021/10/14 11:10:38;;;;;;;4.63;2.73;;;13.80;99.90;;;;;;5070635;28;20454;-54
2021/10/14 11:13:05;;;;;;;3.80;2.93;;;13.70;99.90;;;;;;5069831;28;20447;-55
2021/10/14 11:15:32;;;;;;;3.40;2.80;;;13.70;99.90;;;;;;5073297;28;20469;-55
2021/10/14 11:18:04;;;;;;;3.47;2.83;;;14.00;99.90;;;;;;5070350;28;20524;-55
2021/10/14 11:20:31;;;;;;;4.03;2.93;;;14.00;99.90;;;;;;5058828;28;20456;-54
2021/10/14 11:23:09;;;;;;;2.90;2.60;;;13.70;99.90;;;;;;5060733;28;20455;-55
2021/10/14 11:25:38;;;;;;;4.53;3.10;;;13.90;99.90;;;;;;5071481;28;20465;-53
2021/10/14 11:28:07;;;;;;;3.57;2.90;;;14.10;99.90;;;;;;5068428;28;20478;-54
2021/10/14 11:30:43;;;;;;;4.13;2.90;;;13.80;99.90;;;;;;5070054;28;20477;-53
2021/10/14 11:33:12;;;;;;;3.10;2.80;;;13.80;99.90;;;;;;5069932;28;20455;-54
2021/10/14 11:35:40;;;;;;;3.93;2.60;;;13.90;99.90;;;;;;5064250;28;20533;-55
2021/10/14 11:38:12;;;;;;;2.57;2.27;;;14.00;99.90;;;;;;5067806;28;20466;-54
2021/10/14 11:40:41;;;;;;;2.80;2.60;;;14.00;99.90;;;;;;5070923;28;20814;-56
2021/10/14 11:43:09;;;;;;;2.50;2.30;;;13.90;99.90;;;;;;5070941;28;20821;-55
2021/10/14 11:45:44;;;;;;;3.50;2.70;;;13.80;99.90;;;;;;5070839;28;20478;-54
2021/10/14 11:48:29;;;;;;;3.50;2.80;;;13.60;99.90;;;;;;5070889;28;21071;-54
2021/10/14 11:51:07;;;;;;;2.43;2.20;;;13.70;99.90;;;;;;5067113;28;20482;-54
2021/10/14 11:53:36;;;;;;;3.87;1.80;;;13.70;99.90;;;;;;5052382;28;20447;-54
2021/10/14 11:56:07;;;;;;;4.07;2.90;;;13.60;99.90;;;;;;5066311;28;20537;-53
2021/10/14 11:58:35;;;;;;;2.93;2.57;;;13.10;99.90;;;;;;5070854;28;20874;-54
2021/10/14 12:01:05;;;;;;;2.80;2.50;;;13.00;99.90;;;;;;5070781;28;20504;-55
2021/10/14 12:03:34;;;;;;;4.13;2.57;;;13.40;99.90;;;;;;5067025;28;20443;-54
2021/10/14 12:06:02;;;;;;;2.97;2.60;;;13.60;99.90;;;;;;5050669;28;20973;-54
2021/10/14 12:08:30;;;;;;;2.83;2.60;;;13.70;99.90;;;;;;5050845;28;20540;-55
2021/10/14 12:10:58;;;;;;;2.40;2.20;;;13.70;99.90;;;;;;5056129;28;20515;-56
2021/10/14 12:13:31;;;;;;;2.80;2.10;;;13.60;99.90;;;;;;5073150;28;20454;-55
2021/10/14 12:16:12;;;;;;;3.70;2.40;;;13.60;99.90;;;;;;5073318;28;20470;-55
2021/10/14 12:18:40;;;;;;;3.80;2.60;;;13.50;99.90;;;;;;5066506;28;20944;-54
2021/10/14 12:21:29;;;;;;;3.00;2.60;;;13.50;99.90;;;;;;5072825;28;20517;-54
2021/10/14 12:24:08;;;;;;;3.00;2.50;;;13.60;99.90;;;;;;5072075;28;20521;-54
2021/10/14 12:26:40;;;;;;;3.00;2.30;;;13.50;99.90;;;;;;5071668;28;20466;-56
2021/10/14 12:29:27;;;;;;;2.67;2.30;;;13.70;99.90;;;;;;5073906;28;20909;-54
2021/10/14 12:32:13;;;;;;;2.50;1.90;;;13.80;99.90;;;;;;5067919;28;20512;-56
2021/10/14 12:34:55;;;;;;;2.57;1.87;;;13.70;99.90;;;;;;5057401;28;20517;-55
2021/10/14 12:37:28;;;;;;;4.20;2.03;;;14.00;99.90;;;;;;5061646;28;20465;-55
2021/10/14 12:40:18;;;;;;;4.00;2.80;;;13.80;99.90;;;;;;5071263;28;21041;-55
2021/10/14 12:45:40;;;;;;;2.47;2.30;;;13.70;99.90;;;;;;5096611;22;20593;-60
2021/10/14 12:48:19;;;;;;;5.40;2.90;;;13.80;99.90;;;;;;5079509;28;20569;-61
2021/10/14 12:51:12;;;;;;;3.60;3.30;;;13.80;99.90;;;;;;5089121;28;20470;-61
2021/10/14 12:53:45;;;;;;;4.00;3.60;;;13.50;99.90;;;;;;5090169;28;20438;-60
2021/10/14 12:56:13;;;;;;;4.43;3.73;;;13.20;99.90;;;;;;5077543;28;20503;-60
2021/10/14 12:58:41;;;;;;;8.53;4.07;;;13.10;99.90;;;;;;5065823;28;21023;-60
2021/10/14 13:01:11;;;;;;;5.33;3.47;;;13.20;99.90;;;;;;5070285;28;20504;-60
2021/10/14 13:03:39;;;;;;;4.63;4.03;;;13.30;99.90;;;;;;5073640;28;20564;-60